Time,TemperatureF,DewpointF,PressureIn,WindDirection,WindDirectionDegrees,WindSpeedMPH,WindSpeedGustMPH,Humidity,HourlyPrecipIn,Conditions,Clouds,dailyrainin,SoftwareType,DateUTC
2013-05-02 00:02:00,38.0,-99.9,-100.00,North,0,0.0,0.0,-999,0.00,,,-99.99,,2013-05-02 06:02:00,
2013-05-02 00:12:00,38.0,-99.9,-100.00,North,0,0.0,0.0,-999,0.00,,,-99.99,,2013-05-02 06:12:00,
2013-05-02 00:22:00,38.0,-99.9,-100.00,North,0,0.0,0.0,-999,0.00,,,-99.99,,2013-05-02 06:22:00,
2013-05-02 00:32:00,38.0,-99.9,-100.00,North,0,0.0,0.0,-999,0.00,,,-99.99,,2013-05-02 06:32:00,
2013-05-02 00:42:00,38.0,-99.9,-100.00,North,0,0.0,0.0,-999,0.00,,,-99.99,,2013-05-02 06:42:00,
2013-05-02 02:52:00,36.0,-99.9,-100.00,North,0,0.0,0.0,-999,0.00,,,-99.99,,2013-05-02 08:52:00,
2013-05-02 03:02:00,36.0,-99.9,-100.00,North,0,0.0,0.0,-999,0.00,,,-99.99,,2013-05-02 09:02:00,
2013-05-02 03:12:00,36.0,-99.9,-100.00,North,0,0.0,0.0,-999,0.00,,,-99.99,,2013-05-02 09:12:00,
2013-05-02 03:22:00,36.0,-99.9,-100.00,North,0,0.0,0.0,-999,0.00,,,-99.99,,2013-05-02 09:22:00,
2013-05-02 03:53:00,33.0,-99.9,-100.00,North,0,0.0,0.0,-999,0.00,,,-99.99,,2013-05-02 09:53:00,
2013-05-02 04:03:00,33.0,-99.9,-100.00,North,0,0.0,0.0,-999,0.00,,,-99.99,,2013-05-02 10:03:00,
2013-05-02 04:12:00,33.0,-99.9,-100.00,North,0,0.0,0.0,-999,0.00,,,-99.99,,2013-05-02 10:12:00,
2013-05-02 04:23:00,33.0,-99.9,-100.00,North,0,0.0,0.0,-999,0.00,,,-99.99,,2013-05-02 10:23:00,
2013-05-02 04:33:00,32.0,-99.9,-100.00,North,0,0.0,0.0,-999,0.00,,,-99.99,,2013-05-02 10:33:00,
2013-05-02 04:42:00,32.0,-99.9,-100.00,North,0,0.0,0.0,-999,0.00,,,-99.99,,2013-05-02 10:42:00,
2013-05-02 04:53:00,32.0,-99.9,-100.00,North,0,0.0,0.0,-999,0.00,,,-99.99,,2013-05-02 10:53:00,
2013-05-02 05:02:00,32.0,-99.9,-100.00,North,0,0.0,0.0,-999,0.00,,,-99.99,,2013-05-02 11:02:00,
2013-05-02 05:12:00,32.0,-99.9,-100.00,North,0,0.0,0.0,-999,0.00,,,-99.99,,2013-05-02 11:12:00,
2013-05-02 05:22:00,32.0,-99.9,-100.00,North,0,0.0,0.0,-999,0.00,,,-99.99,,2013-05-02 11:22:00,
2013-05-02 05:32:00,32.0,-99.9,-100.00,North,0,0.0,0.0,-999,0.00,,,-99.99,,2013-05-02 11:32:00,
2013-05-02 05:42:00,32.0,-99.9,-100.00,North,0,0.0,0.0,-999,0.00,,,-99.99,,2013-05-02 11:42:00,
2013-05-02 05:52:00,31.0,-99.9,-100.00,North,0,0.0,0.0,-999,0.00,,,-99.99,,2013-05-02 11:52:00,
2013-05-02 06:02:00,31.0,-99.9,-100.00,North,0,0.0,0.0,-999,0.00,,,-99.99,,2013-05-02 12:02:00,
2013-05-02 06:12:00,31.0,-99.9,-100.00,North,0,0.0,0.0,-999,0.00,,,-99.99,,2013-05-02 12:12:00,
2013-05-02 06:22:00,30.0,-99.9,-100.00,North,0,0.0,0.0,-999,0.00,,,-99.99,,2013-05-02 12:22:00,
2013-05-02 06:32:00,29.0,-99.9,-100.00,North,0,0.0,0.0,-999,0.00,,,-99.99,,2013-05-02 12:32:00,
2013-05-02 06:42:00,29.0,-99.9,-100.00,North,0,0.0,0.0,-999,0.00,,,-99.99,,2013-05-02 12:42:00,
2013-05-02 06:52:00,31.0,-99.9,-100.00,North,0,0.0,0.0,-999,0.00,,,-99.99,,2013-05-02 12:52:00,
2013-05-02 07:01:00,31.0,-99.9,-100.00,North,0,0.0,0.0,-999,0.00,,,-99.99,,2013-05-02 13:01:00,
2013-05-02 07:11:00,31.0,-99.9,-100.00,North,0,0.0,0.0,-999,0.00,,,-99.99,,2013-05-02 13:11:00,
2013-05-02 07:22:00,32.0,-99.9,-100.00,North,0,0.0,0.0,-999,0.00,,,-99.99,,2013-05-02 13:22:00,
2013-05-02 07:32:00,33.0,-99.9,-100.00,North,0,0.0,0.0,-999,0.00,,,-99.99,,2013-05-02 13:32:00,
2013-05-02 07:42:00,33.0,-99.9,-100.00,North,0,0.0,0.0,-999,0.00,,,-99.99,,2013-05-02 13:42:00,
2013-05-02 07:52:00,34.0,-99.9,-100.00,North,0,0.0,0.0,-999,0.00,,,-99.99,,2013-05-02 13:52:00,
2013-05-02 08:02:00,36.0,-99.9,-100.00,North,0,0.0,0.0,-999,0.00,,,-99.99,,2013-05-02 14:02:00,
2013-05-02 08:11:00,36.0,-99.9,-100.00,North,0,0.0,0.0,-999,0.00,,,-99.99,,2013-05-02 14:11:00,
2013-05-02 08:22:00,38.0,-99.9,-100.00,North,0,0.0,0.0,-999,0.00,,,-99.99,,2013-05-02 14:22:00,
2013-05-02 08:32:00,37.0,-99.9,-100.00,North,0,0.0,0.0,-999,0.00,,,-99.99,,2013-05-02 14:32:00,
2013-05-02 08:43:00,37.0,-99.9,-100.00,North,0,0.0,0.0,-999,0.00,,,-99.99,,2013-05-02 14:43:00,
2013-05-02 08:52:00,40.0,-99.9,-100.00,North,0,0.0,0.0,-999,0.00,,,-99.99,,2013-05-02 14:52:00,
2013-05-02 09:02:00,42.0,-99.9,-100.00,North,0,0.0,0.0,-999,0.00,,,-99.99,,2013-05-02 15:02:00,
2013-05-02 09:12:00,42.0,-99.9,-100.00,North,0,0.0,0.0,-999,0.00,,,-99.99,,2013-05-02 15:12:00,
2013-05-02 09:22:00,44.0,-99.9,-100.00,North,0,0.0,0.0,-999,0.00,,,-99.99,,2013-05-02 15:22:00,
2013-05-02 09:33:00,44.0,-99.9,-100.00,North,0,0.0,0.0,-999,0.00,,,-99.99,,2013-05-02 15:33:00,
2013-05-02 09:43:00,44.0,-99.9,-100.00,North,0,0.0,0.0,-999,0.00,,,-99.99,,2013-05-02 15:43:00,
2013-05-02 10:03:00,46.0,-99.9,-100.00,North,0,0.0,0.0,-999,0.00,,,-99.99,,2013-05-02 16:03:00,
2013-05-02 10:13:00,46.0,-99.9,-100.00,North,0,0.0,0.0,-999,0.00,,,-99.99,,2013-05-02 16:13:00,
2013-05-02 10:23:00,48.0,-99.9,-100.00,North,0,0.0,0.0,-999,0.00,,,-99.99,,2013-05-02 16:23:00,
2013-05-02 10:32:00,48.0,-99.9,-100.00,North,0,0.0,0.0,-999,0.00,,,-99.99,,2013-05-02 16:32:00,
2013-05-02 10:43:00,49.0,-99.9,-100.00,North,0,0.0,0.0,-999,0.00,,,-99.99,,2013-05-02 16:43:00,
2013-05-02 10:52:00,49.0,-99.9,-100.00,North,0,0.0,0.0,-999,0.00,,,-99.99,,2013-05-02 16:52:00,
2013-05-02 11:02:00,50.0,-99.9,-100.00,North,359,1.0,5.0,-999,0.00,,,-99.99,,2013-05-02 17:02:00,
2013-05-02 11:12:00,51.0,-99.9,-100.00,North,0,0.0,0.0,-999,0.00,,,-99.99,,2013-05-02 17:12:00,
2013-05-02 11:22:00,51.0,-99.9,-100.00,North,0,0.0,0.0,-999,0.00,,,-99.99,,2013-05-02 17:22:00,
2013-05-02 11:32:00,51.0,-99.9,-100.00,NNE,17,4.0,7.0,-999,0.00,,,-99.99,,2013-05-02 17:32:00,
2013-05-02 11:42:00,51.0,-99.9,-100.00,NNE,17,4.0,7.0,-999,0.00,,,-99.99,,2013-05-02 17:42:00,
2013-05-02 11:52:00,51.0,-99.9,-100.00,North,0,0.0,0.0,-999,0.00,,,-99.99,,2013-05-02 17:52:00,
2013-05-02 12:02:00,52.0,-99.9,-100.00,North,0,0.0,0.0,-999,0.00,,,-99.99,,2013-05-02 18:02:00,
2013-05-02 12:12:00,52.0,-99.9,-100.00,North,0,0.0,0.0,-999,0.00,,,-99.99,,2013-05-02 18:12:00,
2013-05-02 12:22:00,53.0,-99.9,-100.00,North,0,0.0,0.0,-999,0.00,,,-99.99,,2013-05-02 18:22:00,
2013-05-02 12:32:00,53.0,-99.9,-100.00,North,0,0.0,0.0,-999,0.00,,,-99.99,,2013-05-02 18:32:00,
2013-05-02 12:42:00,53.0,-99.9,-100.00,North,0,0.0,0.0,-999,0.00,,,-99.99,,2013-05-02 18:42:00,
2013-05-02 12:52:00,53.0,-99.9,-100.00,NNE,18,7.0,10.0,-999,0.00,,,-99.99,,2013-05-02 18:52:00,
2013-05-02 13:01:00,55.0,-99.9,-100.00,NNE,14,0.0,3.0,-999,0.00,,,-99.99,,2013-05-02 19:01:00,
2013-05-02 13:11:00,55.0,-99.9,-100.00,NNE,14,0.0,3.0,-999,0.00,,,-99.99,,2013-05-02 19:11:00,
2013-05-02 13:22:00,53.0,-99.9,-100.00,North,0,0.0,0.0,-999,0.00,,,-99.99,,2013-05-02 19:22:00,
2013-05-02 13:32:00,54.0,-99.9,-100.00,NNE,14,4.0,8.0,-999,0.00,,,-99.99,,2013-05-02 19:32:00,
2013-05-02 13:42:00,54.0,-99.9,-100.00,NNE,14,4.0,8.0,-999,0.00,,,-99.99,,2013-05-02 19:42:00,
2013-05-02 13:52:00,56.0,-99.9,-100.00,North,0,0.0,0.0,-999,0.00,,,-99.99,,2013-05-02 19:52:00,
2013-05-02 14:02:00,56.0,-99.9,-100.00,North,7,1.0,4.0,-999,0.00,,,-99.99,,2013-05-02 20:02:00,
2013-05-02 14:12:00,56.0,-99.9,-100.00,NNE,23,1.0,5.0,-999,0.00,,,-99.99,,2013-05-02 20:12:00,
2013-05-02 14:22:00,56.0,-99.9,-100.00,NNE,23,1.0,5.0,-999,0.00,,,-99.99,,2013-05-02 20:22:00,
2013-05-02 14:32:00,56.0,-99.9,-100.00,North,0,0.0,0.0,-999,0.00,,,-99.99,,2013-05-02 20:32:00,
2013-05-02 14:42:00,56.0,-99.9,-100.00,North,0,0.0,0.0,-999,0.00,,,-99.99,,2013-05-02 20:42:00,
2013-05-02 14:52:00,57.0,-99.9,-100.00,North,0,0.0,0.0,-999,0.00,,,-99.99,,2013-05-02 20:52:00,
2013-05-02 15:01:00,59.0,-99.9,-100.00,ENE,59,0.0,3.0,-999,0.00,,,-99.99,,2013-05-02 21:01:00,
2013-05-02 15:12:00,58.0,-99.9,-100.00,NW,304,4.0,6.0,-999,0.00,,,-99.99,,2013-05-02 21:12:00,
2013-05-02 15:22:00,58.0,-99.9,-100.00,NW,304,4.0,6.0,-999,0.00,,,-99.99,,2013-05-02 21:22:00,
2013-05-02 15:33:00,59.0,-99.9,-100.00,North,0,0.0,0.0,-999,0.00,,,-99.99,,2013-05-02 21:33:00,
2013-05-02 15:43:00,59.0,-99.9,-100.00,North,0,0.0,0.0,-999,0.00,,,-99.99,,2013-05-02 21:43:00,
2013-05-02 15:53:00,59.0,-99.9,-100.00,North,0,0.0,0.0,-999,0.00,,,-99.99,,2013-05-02 21:53:00,
2013-05-02 16:03:00,59.0,-99.9,-100.00,WNW,294,1.0,5.0,-999,0.00,,,-99.99,,2013-05-02 22:03:00,
2013-05-02 16:13:00,59.0,-99.9,-100.00,WNW,294,1.0,5.0,-999,0.00,,,-99.99,,2013-05-02 22:13:00,
2013-05-02 16:22:00,61.0,-99.9,-100.00,North,0,0.0,0.0,-999,0.00,,,-99.99,,2013-05-02 22:22:00,
2013-05-02 16:33:00,61.0,-99.9,-100.00,North,0,0.0,0.0,-999,0.00,,,-99.99,,2013-05-02 22:33:00,
2013-05-02 16:42:00,61.0,-99.9,-100.00,North,0,0.0,0.0,-999,0.00,,,-99.99,,2013-05-02 22:42:00,
2013-05-02 16:53:00,63.0,-99.9,-100.00,North,0,0.0,0.0,-999,0.00,,,-99.99,,2013-05-02 22:53:00,
2013-05-02 17:02:00,64.0,-99.9,-100.00,North,0,0.0,0.0,-999,0.00,,,-99.99,,2013-05-02 23:02:00,
2013-05-02 17:12:00,64.0,-99.9,-100.00,North,0,0.0,0.0,-999,0.00,,,-99.99,,2013-05-02 23:12:00,
2013-05-02 17:22:00,63.0,-99.9,-100.00,NE,35,1.0,6.0,-999,0.00,,,-99.99,,2013-05-02 23:22:00,
2013-05-02 17:32:00,63.0,-99.9,-100.00,North,0,0.0,0.0,-999,0.00,,,-99.99,,2013-05-02 23:32:00,
2013-05-02 17:42:00,63.0,-99.9,-100.00,North,0,0.0,0.0,-999,0.00,,,-99.99,,2013-05-02 23:42:00,
2013-05-02 17:52:00,64.0,-99.9,-100.00,North,0,0.0,0.0,-999,0.00,,,-99.99,,2013-05-02 23:52:00,
2013-05-02 18:02:00,65.0,-99.9,-100.00,North,0,0.0,0.0,-999,0.00,,,-99.99,,2013-05-03 00:02:00,
2013-05-02 18:12:00,64.0,-99.9,-100.00,North,0,0.0,0.0,-999,0.00,,,-99.99,,2013-05-03 00:12:00,
2013-05-02 18:22:00,64.0,-99.9,-100.00,North,0,0.0,0.0,-999,0.00,,,-99.99,,2013-05-03 00:22:00,
2013-05-02 18:32:00,68.0,-99.9,-100.00,North,0,0.0,0.0,-999,0.00,,,-99.99,,2013-05-03 00:32:00,
2013-05-02 18:42:00,68.0,-99.9,-100.00,North,0,0.0,0.0,-999,0.00,,,-99.99,,2013-05-03 00:42:00,
2013-05-02 18:52:00,66.0,-99.9,-100.00,North,0,0.0,0.0,-999,0.00,,,-99.99,,2013-05-03 00:52:00,
2013-05-02 19:02:00,67.0,-99.9,-100.00,North,0,0.0,0.0,-999,0.00,,,-99.99,,2013-05-03 01:02:00,
2013-05-02 19:11:00,67.0,-99.9,-100.00,North,0,0.0,0.0,-999,0.00,,,-99.99,,2013-05-03 01:11:00,
2013-05-02 19:22:00,65.0,-99.9,-100.00,North,0,0.0,0.0,-999,0.00,,,-99.99,,2013-05-03 01:22:00,
2013-05-02 19:32:00,65.0,-99.9,-100.00,North,0,0.0,0.0,-999,0.00,,,-99.99,,2013-05-03 01:32:00,
2013-05-02 19:42:00,65.0,-99.9,-100.00,North,0,0.0,0.0,-999,0.00,,,-99.99,,2013-05-03 01:42:00,
2013-05-02 19:52:00,61.0,-99.9,-100.00,North,0,0.0,0.0,-999,0.00,,,-99.99,,2013-05-03 01:52:00,
2013-05-02 20:02:00,58.0,-99.9,-100.00,North,0,0.0,0.0,-999,0.00,,,-99.99,,2013-05-03 02:02:00,
2013-05-02 20:11:00,58.0,-99.9,-100.00,North,0,0.0,0.0,-999,0.00,,,-99.99,,2013-05-03 02:11:00,
2013-05-02 20:22:00,52.0,-99.9,-100.00,North,0,0.0,0.0,-999,0.00,,,-99.99,,2013-05-03 02:22:00,
2013-05-02 20:32:00,50.0,-99.9,-100.00,North,0,0.0,0.0,-999,0.00,,,-99.99,,2013-05-03 02:32:00,
2013-05-02 20:42:00,50.0,-99.9,-100.00,North,0,0.0,0.0,-999,0.00,,,-99.99,,2013-05-03 02:42:00,
2013-05-02 20:52:00,49.0,-99.9,-100.00,North,0,0.0,0.0,-999,0.00,,,-99.99,,2013-05-03 02:52:00,
2013-05-02 21:01:00,46.0,-99.9,-100.00,North,0,0.0,0.0,-999,0.00,,,-99.99,,2013-05-03 03:01:00,
2013-05-02 21:11:00,46.0,-99.9,-100.00,North,0,0.0,0.0,-999,0.00,,,-99.99,,2013-05-03 03:11:00,
2013-05-02 21:22:00,46.0,-99.9,-100.00,North,0,0.0,0.0,-999,0.00,,,-99.99,,2013-05-03 03:22:00,
2013-05-02 21:33:00,46.0,-99.9,-100.00,North,0,0.0,0.0,-999,0.00,,,-99.99,,2013-05-03 03:33:00,
2013-05-02 21:43:00,46.0,-99.9,-100.00,North,0,0.0,0.0,-999,0.00,,,-99.99,,2013-05-03 03:43:00,
2013-05-02 21:53:00,45.0,-99.9,-100.00,North,0,0.0,0.0,-999,0.00,,,-99.99,,2013-05-03 03:53:00,
2013-05-02 22:03:00,44.0,-99.9,-100.00,North,0,0.0,0.0,-999,0.00,,,-99.99,,2013-05-03 04:03:00,
2013-05-02 22:13:00,43.0,-99.9,-100.00,North,0,0.0,0.0,-999,0.00,,,-99.99,,2013-05-03 04:13:00,
2013-05-02 22:23:00,43.0,-99.9,-100.00,North,0,0.0,0.0,-999,0.00,,,-99.99,,2013-05-03 04:23:00,
2013-05-02 22:33:00,43.0,-99.9,-100.00,North,0,0.0,0.0,-999,0.00,,,-99.99,,2013-05-03 04:33:00,
2013-05-02 22:43:00,43.0,-99.9,-100.00,North,0,0.0,0.0,-999,0.00,,,-99.99,,2013-05-03 04:43:00,
2013-05-02 22:53:00,42.0,-99.9,-100.00,NNE,24,0.0,2.0,-999,0.00,,,-99.99,,2013-05-03 04:53:00,
2013-05-02 23:03:00,42.0,-99.9,-100.00,North,0,0.0,0.0,-999,0.00,,,-99.99,,2013-05-03 05:03:00,
2013-05-02 23:12:00,42.0,-99.9,-100.00,North,0,0.0,0.0,-999,0.00,,,-99.99,,2013-05-03 05:12:00,
2013-05-02 23:22:00,41.0,-99.9,-100.00,North,0,0.0,0.0,-999,0.00,,,-99.99,,2013-05-03 05:22:00,
2013-05-02 23:32:00,41.0,-99.9,-100.00,North,0,0.0,0.0,-999,0.00,,,-99.99,,2013-05-03 05:32:00,
2013-05-02 23:42:00,41.0,-99.9,-100.00,North,0,0.0,0.0,-999,0.00,,,-99.99,,2013-05-03 05:42:00,
2013-05-02 23:52:00,40.0,-99.9,-100.00,North,0,0.0,0.0,-999,0.00,,,-99.99,,2013-05-03 05:52:00,